createdAt,value
2023-02-24T00:00:45.875Z,92.70
2023-02-24T00:01:44.411Z,92.66
2023-02-24T00:02:44.470Z,93.08
2023-02-24T00:03:44.500Z,92.75
2023-02-24T00:04:44.438Z,92.85
2023-02-24T00:05:44.591Z,93.23
2023-02-24T00:06:44.445Z,93.37
2023-02-24T00:07:44.434Z,93.18
2023-02-24T00:08:44.431Z,92.99
2023-02-24T00:09:44.450Z,93.08
2023-02-24T00:10:44.450Z,93.04
2023-02-24T00:11:44.443Z,93.04
2023-02-24T00:12:44.456Z,92.66
2023-02-24T00:13:44.450Z,92.66
2023-02-24T00:14:44.458Z,92.94
2023-02-24T00:15:44.487Z,92.66
2023-02-24T00:16:44.595Z,92.08
2023-02-24T00:17:44.469Z,91.80
2023-02-24T00:18:44.475Z,91.61
2023-02-24T00:19:44.472Z,91.61
2023-02-24T00:20:44.489Z,90.94
2023-02-24T00:21:44.493Z,91.42
2023-02-24T00:22:44.491Z,90.28
2023-02-24T00:23:44.493Z,90.19
2023-02-24T00:24:44.488Z,90.28
2023-02-24T00:25:44.489Z,90.28
2023-02-24T00:26:44.495Z,90.19
2023-02-24T00:27:44.502Z,90.19
2023-02-24T00:28:44.512Z,90.28
2023-02-24T00:29:44.505Z,90.00
2023-02-24T00:30:44.584Z,90.28
2023-02-24T00:31:44.731Z,90.47
2023-02-24T00:32:44.692Z,89.33
2023-02-24T00:33:44.558Z,89.61
2023-02-24T00:34:44.536Z,89.71
2023-02-24T00:35:44.530Z,89.33
2023-02-24T00:36:44.535Z,89.33
2023-02-24T00:37:44.549Z,88.57
2023-02-24T00:38:44.548Z,87.38
2023-02-24T00:39:44.569Z,87.57
2023-02-24T00:40:44.556Z,87.38
2023-02-24T00:41:44.562Z,87.10
2023-02-24T00:42:44.559Z,87.76
2023-02-24T00:43:44.564Z,87.76
2023-02-24T00:44:44.567Z,87.57
2023-02-24T00:45:44.715Z,87.67
2023-02-24T00:46:44.710Z,87.38
2023-02-24T00:47:44.619Z,87.76
2023-02-24T00:48:44.580Z,87.01
2023-02-24T00:49:44.603Z,87.19
2023-02-24T00:50:44.600Z,87.95
2023-02-24T00:51:44.590Z,87.29
2023-02-24T00:52:44.603Z,87.29
2023-02-24T00:53:44.601Z,87.57
2023-02-24T00:54:44.600Z,87.67
2023-02-24T00:55:44.689Z,87.38
2023-02-24T00:56:44.605Z,87.48
2023-02-24T00:57:44.616Z,87.19
2023-02-24T00:58:44.621Z,87.57
2023-02-24T00:59:44.621Z,87.29
2023-02-24T01:00:44.619Z,87.57
2023-02-24T01:01:44.717Z,87.67
2023-02-24T01:02:44.632Z,87.67
2023-02-24T01:03:44.716Z,87.38
2023-02-24T01:04:44.752Z,87.57
2023-02-24T01:05:44.633Z,87.67
2023-02-24T01:06:44.646Z,87.38
2023-02-24T01:07:44.646Z,87.38
2023-02-24T01:08:44.642Z,87.48
2023-02-24T01:09:44.649Z,87.19
2023-02-24T01:10:44.657Z,87.38
2023-02-24T01:11:44.717Z,87.38
2023-02-24T01:12:44.662Z,87.48
2023-02-24T01:13:44.655Z,86.91
2023-02-24T01:14:44.666Z,87.67
2023-02-24T01:15:44.696Z,87.48
2023-02-24T01:16:44.673Z,87.19
2023-02-24T01:17:44.674Z,87.48
2023-02-24T01:18:44.673Z,87.10
2023-02-24T01:19:44.734Z,87.48
2023-02-24T01:20:44.679Z,87.29
2023-02-24T01:21:44.687Z,87.38
2023-02-24T01:22:44.685Z,87.67
2023-02-24T01:23:44.694Z,87.19
2023-02-24T01:24:44.706Z,87.86
2023-02-24T01:25:44.701Z,87.10
2023-02-24T01:26:44.703Z,87.38
2023-02-24T01:27:44.707Z,87.57
2023-02-24T01:28:44.715Z,87.38
2023-02-24T01:29:44.714Z,87.57
2023-02-24T01:30:44.713Z,87.19
2023-02-24T01:31:45.534Z,87.48
2023-02-24T01:32:44.973Z,87.48
2023-02-24T01:33:44.719Z,87.57
2023-02-24T01:34:44.732Z,87.10
2023-02-24T01:35:44.756Z,87.19
2023-02-24T01:36:44.734Z,87.67
2023-02-24T01:37:44.739Z,87.29
2023-02-24T01:38:44.734Z,87.38
2023-02-24T01:39:44.806Z,87.19
2023-02-24T01:40:44.754Z,87.67
2023-02-24T01:41:44.756Z,87.67
2023-02-24T01:42:44.752Z,87.38
2023-02-24T01:43:44.752Z,87.57
2023-02-24T01:44:44.757Z,87.57
2023-02-24T01:45:44.764Z,87.57
2023-02-24T01:46:44.862Z,87.19
2023-02-24T01:47:44.769Z,87.29
2023-02-24T01:48:44.777Z,87.57
2023-02-24T01:49:44.782Z,87.10
2023-02-24T01:50:44.786Z,86.72
2023-02-24T01:51:44.798Z,86.91
2023-02-24T01:52:44.788Z,87.01
2023-02-24T01:53:44.788Z,87.29
2023-02-24T01:54:44.788Z,87.10
2023-02-24T01:55:44.790Z,87.01
2023-02-24T01:56:44.795Z,86.72
2023-02-24T01:57:44.804Z,87.01
2023-02-24T01:58:44.803Z,87.10
2023-02-24T01:59:44.810Z,87.10
2023-02-24T02:00:44.829Z,87.01
2023-02-24T02:01:44.943Z,87.01
2023-02-24T02:02:45.019Z,87.10
2023-02-24T02:03:44.814Z,86.91
2023-02-24T02:04:44.842Z,86.82
2023-02-24T02:05:44.824Z,86.15
2023-02-24T02:06:44.829Z,86.63
2023-02-24T02:07:44.853Z,86.43
2023-02-24T02:08:44.840Z,86.43
2023-02-24T02:09:44.844Z,86.53
2023-02-24T02:10:44.836Z,86.34
2023-02-24T02:11:44.849Z,86.72
2023-02-24T02:12:45.043Z,86.43
2023-02-24T02:13:44.916Z,86.91
2023-02-24T02:15:27.390Z,86.43
2023-02-24T02:16:27.499Z,87.10
2023-02-24T02:17:27.400Z,87.10
2023-02-24T02:18:27.407Z,87.01
2023-02-24T02:19:27.404Z,86.91
2023-02-24T02:20:27.406Z,87.10
2023-02-24T02:21:27.409Z,87.10
2023-02-24T02:22:27.412Z,87.19
2023-02-24T02:23:27.440Z,86.91
2023-02-24T02:24:27.437Z,87.19
2023-02-24T02:25:27.420Z,87.19
2023-02-24T02:26:27.429Z,87.67
2023-02-24T02:27:27.428Z,87.57
2023-02-24T02:28:30.064Z,87.38
2023-02-24T02:29:27.453Z,87.29
2023-02-24T02:30:27.434Z,87.67
2023-02-24T02:31:27.551Z,87.76
2023-02-24T02:32:27.556Z,87.67
2023-02-24T02:33:27.563Z,87.86
2023-02-24T02:34:27.447Z,87.48
2023-02-24T02:35:27.464Z,87.38
2023-02-24T02:36:30.075Z,87.29
2023-02-24T02:37:27.457Z,87.57
2023-02-24T02:38:27.457Z,87.38
2023-02-24T02:39:27.503Z,87.38
2023-02-24T02:40:27.477Z,87.57
2023-02-24T02:41:27.475Z,87.57
2023-02-24T02:42:27.478Z,87.57
2023-02-24T02:43:27.474Z,87.19
2023-02-24T02:44:27.484Z,87.29
2023-02-24T02:45:27.508Z,87.57
2023-02-24T02:46:27.489Z,87.86
2023-02-24T02:47:30.114Z,87.76
2023-02-24T02:48:30.106Z,87.76
2023-02-24T02:49:27.486Z,88.05
2023-02-24T02:50:27.499Z,87.76
2023-02-24T02:51:27.509Z,87.86
2023-02-24T02:53:10.052Z,87.95
2023-02-24T02:54:10.036Z,88.05
2023-02-24T02:55:10.066Z,88.05
2023-02-24T02:56:10.041Z,88.43
2023-02-24T02:57:10.061Z,88.43
2023-02-24T02:58:10.044Z,88.15
2023-02-24T02:59:10.048Z,88.62
2023-02-24T03:00:10.055Z,88.90
2023-02-24T03:01:10.102Z,88.15
2023-02-24T03:02:10.065Z,88.24
2023-02-24T03:03:10.060Z,88.71
2023-02-24T03:04:10.070Z,88.71
2023-02-24T03:05:10.101Z,88.53
2023-02-24T03:06:10.102Z,88.43
2023-02-24T03:07:10.072Z,88.43
2023-02-24T03:08:10.074Z,88.24
2023-02-24T03:09:10.080Z,88.24
2023-02-24T03:10:10.088Z,88.43
2023-02-24T03:11:10.103Z,89.00
2023-02-24T03:12:10.097Z,88.62
2023-02-24T03:13:10.093Z,88.71
2023-02-24T03:14:10.092Z,88.81
2023-02-24T03:15:10.092Z,89.00
2023-02-24T03:16:10.108Z,88.34
2023-02-24T03:17:10.111Z,88.62
2023-02-24T03:18:10.179Z,88.43
2023-02-24T03:19:10.111Z,88.62
2023-02-24T03:20:10.115Z,88.81
2023-02-24T03:21:10.119Z,88.53
2023-02-24T03:22:10.127Z,88.81
2023-02-24T03:23:10.125Z,88.71
2023-02-24T03:24:10.140Z,88.90
2023-02-24T03:25:10.131Z,88.71
2023-02-24T03:26:10.135Z,88.81
2023-02-24T03:27:10.152Z,88.43
2023-02-24T03:28:10.133Z,88.71
2023-02-24T03:29:10.142Z,88.62
2023-02-24T03:30:10.142Z,88.71
2023-02-24T03:31:10.167Z,88.62
2023-02-24T03:32:10.297Z,88.62
2023-02-24T03:33:10.150Z,88.53
2023-02-24T03:34:10.156Z,88.71
2023-02-24T03:35:10.162Z,88.62
2023-02-24T03:36:10.156Z,88.43
2023-02-24T03:37:10.163Z,88.53
2023-02-24T03:38:10.171Z,88.43
2023-02-24T03:39:10.174Z,88.43
2023-02-24T03:40:10.167Z,88.34
2023-02-24T03:41:10.173Z,88.34
2023-02-24T03:42:10.174Z,89.09
2023-02-24T03:43:10.252Z,89.00
2023-02-24T03:44:10.192Z,88.81
2023-02-24T03:45:10.192Z,89.09
2023-02-24T03:46:10.268Z,89.00
2023-02-24T03:47:10.258Z,88.71
2023-02-24T03:48:10.198Z,88.34
2023-02-24T03:49:10.214Z,88.71
2023-02-24T03:50:10.199Z,88.90
2023-02-24T03:51:10.207Z,88.34
2023-02-24T03:52:10.209Z,88.43
2023-02-24T03:53:10.208Z,88.53
2023-02-24T03:54:10.225Z,88.43
2023-02-24T03:55:10.228Z,88.71
2023-02-24T03:56:10.214Z,88.62
2023-02-24T03:57:10.218Z,88.71
2023-02-24T03:58:10.261Z,88.81
2023-02-24T03:59:10.246Z,88.81
2023-02-24T04:00:10.232Z,88.71
2023-02-24T04:01:10.238Z,88.62
2023-02-24T04:02:10.329Z,88.62
2023-02-24T04:03:10.238Z,88.71
2023-02-24T04:04:10.245Z,88.71
2023-02-24T04:05:10.244Z,88.81
2023-02-24T04:06:10.269Z,88.71
2023-02-24T04:07:10.246Z,88.81
2023-02-24T04:08:10.260Z,88.81
2023-02-24T04:09:10.251Z,88.81
2023-02-24T04:10:10.259Z,88.81
2023-02-24T04:11:10.265Z,88.81
2023-02-24T04:12:10.268Z,88.62
2023-02-24T04:13:10.277Z,88.53
2023-02-24T04:14:10.277Z,88.71
2023-02-24T04:15:10.294Z,88.62
2023-02-24T04:16:10.360Z,88.81
2023-02-24T04:17:10.291Z,88.81
2023-02-24T04:18:10.286Z,88.81
2023-02-24T04:19:10.289Z,89.09
2023-02-24T04:20:10.290Z,88.62
2023-02-24T04:21:10.290Z,88.81
2023-02-24T04:22:10.318Z,88.43
2023-02-24T04:23:10.296Z,88.43
2023-02-24T04:24:10.312Z,88.62
2023-02-24T04:25:10.304Z,88.43
2023-02-24T04:26:10.305Z,88.62
2023-02-24T04:27:10.317Z,88.53
2023-02-24T04:28:10.311Z,88.43
2023-02-24T04:29:10.321Z,88.62
2023-02-24T04:30:10.317Z,88.62
2023-02-24T04:31:10.546Z,88.34
2023-02-24T04:32:10.610Z,88.62
2023-02-24T04:33:10.325Z,88.81
2023-02-24T04:34:10.319Z,88.71
2023-02-24T04:35:10.327Z,88.34
2023-02-24T04:36:10.327Z,88.71
2023-02-24T04:37:10.344Z,88.71
2023-02-24T04:38:10.339Z,88.62
2023-02-24T04:39:10.345Z,88.43
2023-02-24T04:40:10.347Z,87.91
2023-02-24T04:41:10.349Z,87.91
2023-02-24T04:42:10.344Z,87.62
2023-02-24T04:43:10.354Z,87.62
2023-02-24T04:44:10.357Z,87.53
2023-02-24T04:45:10.359Z,87.24
2023-02-24T04:46:10.397Z,87.53
2023-02-24T04:47:10.388Z,87.53
2023-02-24T04:48:10.370Z,87.53
2023-02-24T04:49:10.373Z,87.53
2023-02-24T04:50:10.367Z,87.53
2023-02-24T04:51:10.375Z,87.53
2023-02-24T04:52:10.381Z,87.53
2023-02-24T04:53:10.372Z,87.53
2023-02-24T04:54:10.397Z,87.53
2023-02-24T04:55:10.379Z,87.24
2023-02-24T04:56:10.382Z,87.43
2023-02-24T04:57:10.386Z,87.53
2023-02-24T04:58:10.400Z,87.62
2023-02-24T04:59:10.395Z,87.76
2023-02-24T05:00:10.395Z,87.15
2023-02-24T05:01:10.418Z,87.34
2023-02-24T05:02:10.402Z,87.62
2023-02-24T05:03:10.431Z,87.53
2023-02-24T05:04:10.520Z,87.24
2023-02-24T05:05:10.419Z,87.24
2023-02-24T05:06:10.411Z,87.05
2023-02-24T05:07:10.417Z,86.72
2023-02-24T05:08:10.424Z,87.05
2023-02-24T05:09:10.421Z,86.87
2023-02-24T05:10:10.423Z,87.15
2023-02-24T05:11:10.434Z,86.87
2023-02-24T05:12:10.435Z,86.82
2023-02-24T05:13:10.434Z,86.58
2023-02-24T05:14:10.443Z,86.39
2023-02-24T05:15:10.440Z,86.53
2023-02-24T05:16:10.540Z,86.58
2023-02-24T05:17:10.444Z,86.53
2023-02-24T05:18:10.449Z,86.68
2023-02-24T05:19:10.478Z,86.01
2023-02-24T05:20:10.453Z,86.49
2023-02-24T05:21:10.461Z,86.20
2023-02-24T05:22:10.468Z,86.20
2023-02-24T05:23:10.469Z,85.53
2023-02-24T05:24:10.471Z,85.72
2023-02-24T05:25:10.473Z,85.63
2023-02-24T05:26:10.482Z,85.82
2023-02-24T05:27:10.471Z,85.72
2023-02-24T05:28:10.502Z,85.63
2023-02-24T05:29:10.475Z,85.72
2023-02-24T05:30:10.491Z,85.82
2023-02-24T05:31:10.624Z,85.82
2023-02-24T05:32:10.635Z,85.91
2023-02-24T05:33:10.486Z,85.53
2023-02-24T05:34:10.498Z,85.63
2023-02-24T05:35:10.518Z,85.53
2023-02-24T05:36:10.501Z,85.53
2023-02-24T05:37:10.775Z,85.72
2023-02-24T05:38:10.501Z,85.53
2023-02-24T05:39:10.508Z,85.63
2023-02-24T05:40:10.508Z,85.44
2023-02-24T05:41:10.513Z,85.72
2023-02-24T05:42:10.508Z,85.44
2023-02-24T05:43:10.518Z,85.44
2023-02-24T05:44:10.523Z,85.58
2023-02-24T05:45:10.521Z,85.44
2023-02-24T05:46:10.517Z,85.58
2023-02-24T05:47:10.542Z,85.72
2023-02-24T05:48:10.521Z,85.06
2023-02-24T05:49:10.540Z,85.11
2023-02-24T05:50:10.526Z,85.16
2023-02-24T05:51:10.552Z,85.16
2023-02-24T05:52:10.533Z,84.87
2023-02-24T05:53:10.540Z,84.72
2023-02-24T05:54:10.550Z,85.01
2023-02-24T05:55:10.551Z,84.97
2023-02-24T05:56:10.552Z,85.01
2023-02-24T05:57:10.545Z,84.87
2023-02-24T05:58:10.554Z,85.06
2023-02-24T05:59:10.558Z,85.06
2023-02-24T06:00:10.561Z,84.78
2023-02-24T06:01:10.562Z,84.63
2023-02-24T06:02:10.747Z,84.59
2023-02-24T06:03:10.647Z,84.63
2023-02-24T06:04:10.582Z,84.44
2023-02-24T06:05:10.578Z,84.63
2023-02-24T06:06:10.572Z,84.44
2023-02-24T06:07:10.594Z,84.01
2023-02-24T06:08:10.587Z,84.21
2023-02-24T06:09:10.692Z,84.25
2023-02-24T06:10:10.582Z,83.78
2023-02-24T06:11:10.598Z,83.92
2023-02-24T06:12:10.725Z,83.59
2023-02-24T06:13:10.589Z,83.73
2023-02-24T06:14:10.592Z,83.87
2023-02-24T06:15:10.598Z,83.45
2023-02-24T06:16:10.610Z,83.49
2023-02-24T06:17:10.604Z,83.49
2023-02-24T06:18:10.600Z,83.36
2023-02-24T06:19:10.628Z,83.30
2023-02-24T06:20:10.610Z,83.11
2023-02-24T06:21:10.608Z,82.82
2023-02-24T06:22:10.612Z,82.31
2023-02-24T06:23:10.647Z,82.21
2023-02-24T06:24:10.619Z,82.50
2023-02-24T06:25:10.624Z,81.93
2023-02-24T06:26:10.630Z,82.03
2023-02-24T06:27:10.636Z,81.93
2023-02-24T06:28:10.636Z,82.21
2023-02-24T06:29:10.636Z,82.21
2023-02-24T06:30:10.775Z,82.12
2023-02-24T06:31:10.644Z,82.40
2023-02-24T06:32:10.728Z,82.31
2023-02-24T06:33:10.648Z,82.12
2023-02-24T06:34:10.654Z,81.84
2023-02-24T06:35:10.656Z,82.12
2023-02-24T06:36:10.649Z,82.03
2023-02-24T06:37:10.653Z,82.03
2023-02-24T06:38:10.662Z,82.03
2023-02-24T06:39:10.690Z,82.12
2023-02-24T06:40:10.665Z,81.65
2023-02-24T06:41:10.712Z,81.93
2023-02-24T06:42:10.670Z,82.03
2023-02-24T06:43:10.675Z,81.93
2023-02-24T06:44:10.692Z,82.31
2023-02-24T06:45:10.682Z,82.88
2023-02-24T06:46:10.775Z,82.78
2023-02-24T06:47:10.696Z,82.31
2023-02-24T06:48:10.683Z,82.59
2023-02-24T06:49:10.692Z,82.40
2023-02-24T06:50:10.693Z,82.40
2023-02-24T06:51:10.700Z,82.59
2023-02-24T06:52:10.699Z,82.50
2023-02-24T06:53:10.703Z,82.59
2023-02-24T06:54:10.705Z,82.31
2023-02-24T06:55:10.730Z,82.50
2023-02-24T06:56:10.702Z,82.59
2023-02-24T06:57:10.705Z,82.40
2023-02-24T06:58:10.714Z,82.40
2023-02-24T06:59:10.711Z,82.69
2023-02-24T07:00:10.714Z,82.40
2023-02-24T07:01:10.774Z,82.12
2023-02-24T07:02:10.754Z,82.21
2023-02-24T07:03:10.726Z,82.21
2023-02-24T07:04:10.769Z,82.59
2023-02-24T07:05:10.723Z,82.78
2023-02-24T07:06:10.737Z,82.31
2023-02-24T07:07:10.730Z,82.12
2023-02-24T07:08:10.737Z,81.93
2023-02-24T07:09:10.739Z,82.21
2023-02-24T07:10:10.753Z,81.93
2023-02-24T07:11:10.766Z,82.03
2023-02-24T07:12:10.756Z,81.97
2023-02-24T07:13:10.750Z,81.87
2023-02-24T07:14:10.748Z,82.07
2023-02-24T07:15:10.759Z,81.68
2023-02-24T07:16:10.762Z,81.78
2023-02-24T07:17:10.761Z,81.78
2023-02-24T07:18:10.771Z,81.49
2023-02-24T07:19:10.767Z,81.49
2023-02-24T07:20:10.766Z,80.83
2023-02-24T07:21:10.764Z,81.12
2023-02-24T07:22:10.781Z,80.45
2023-02-24T07:23:10.776Z,80.16
2023-02-24T07:24:10.780Z,80.07
2023-02-24T07:25:10.780Z,80.35
2023-02-24T07:26:10.784Z,79.97
2023-02-24T07:27:10.817Z,78.93
2023-02-24T07:28:10.792Z,79.12
2023-02-24T07:29:10.802Z,79.69
2023-02-24T07:30:10.789Z,79.60
2023-02-24T07:31:10.936Z,78.55
2023-02-24T07:32:10.945Z,78.55
2023-02-24T07:33:10.798Z,78.27
2023-02-24T07:34:10.806Z,78.08
2023-02-24T07:35:10.810Z,77.98
2023-02-24T07:36:10.811Z,78.45
2023-02-24T07:37:10.824Z,78.27
2023-02-24T07:38:10.816Z,77.89
2023-02-24T07:39:10.810Z,77.89
2023-02-24T07:40:10.813Z,77.60
2023-02-24T07:41:10.826Z,77.03
2023-02-24T07:42:10.819Z,76.18
2023-02-24T07:43:10.849Z,75.99
2023-02-24T07:44:10.835Z,76.27
2023-02-24T07:45:10.900Z,76.46
2023-02-24T07:46:10.913Z,76.56
2023-02-24T07:47:10.837Z,76.65
2023-02-24T07:48:10.843Z,76.84
2023-02-24T07:49:10.834Z,77.22
2023-02-24T07:50:10.845Z,77.31
2023-02-24T07:51:10.850Z,76.93
2023-02-24T07:52:10.840Z,76.75
2023-02-24T07:53:10.847Z,77.12
2023-02-24T07:54:10.849Z,76.65
2023-02-24T07:55:10.858Z,76.93
2023-02-24T07:56:10.859Z,76.93
2023-02-24T07:57:10.857Z,76.75
2023-02-24T07:58:10.866Z,76.56
2023-02-24T07:59:10.910Z,77.12
2023-02-24T08:00:12.657Z,76.84
2023-02-24T08:01:10.878Z,76.65
2023-02-24T08:02:10.948Z,76.75
2023-02-24T08:03:10.879Z,76.75
2023-02-24T08:04:10.873Z,76.69
2023-02-24T08:05:10.952Z,76.50
2023-02-24T08:06:10.880Z,76.88
2023-02-24T08:07:10.890Z,76.40
2023-02-24T08:08:10.897Z,76.31
2023-02-24T08:09:10.889Z,76.44
2023-02-24T08:10:10.900Z,76.06
2023-02-24T08:11:10.899Z,76.06
2023-02-24T08:12:10.897Z,76.21
2023-02-24T08:13:10.904Z,76.03
2023-02-24T08:14:10.937Z,75.64
2023-02-24T08:15:10.936Z,75.45
2023-02-24T08:16:10.948Z,75.36
2023-02-24T08:17:10.918Z,75.49
2023-02-24T08:18:10.934Z,75.02
2023-02-24T08:19:10.929Z,75.30
2023-02-24T08:20:10.932Z,75.59
2023-02-24T08:21:10.927Z,75.40
2023-02-24T08:22:10.929Z,75.59
2023-02-24T08:23:10.953Z,74.92
2023-02-24T08:24:10.942Z,74.82
2023-02-24T08:25:10.945Z,74.07
2023-02-24T08:26:10.970Z,74.16
2023-02-24T08:27:10.955Z,74.07
2023-02-24T08:28:10.950Z,73.97
2023-02-24T08:29:10.960Z,73.93
2023-02-24T08:30:10.956Z,73.93
2023-02-24T08:31:11.121Z,74.22
2023-02-24T08:32:11.095Z,74.12
2023-02-24T08:33:10.969Z,74.12
2023-02-24T08:34:10.975Z,74.22
2023-02-24T08:35:10.980Z,74.12
2023-02-24T08:36:10.981Z,74.12
2023-02-24T08:37:10.980Z,73.93
2023-02-24T08:38:10.986Z,73.93
2023-02-24T08:39:10.994Z,73.36
2023-02-24T08:40:10.985Z,73.65
2023-02-24T08:41:11.001Z,73.80
2023-02-24T08:42:10.992Z,73.71
2023-02-24T08:43:10.997Z,73.90
2023-02-24T08:44:11.001Z,73.99
2023-02-24T08:45:11.016Z,74.27
2023-02-24T08:46:11.036Z,74.18
2023-02-24T08:47:11.039Z,74.08
2023-02-24T08:48:11.016Z,74.27
2023-02-24T08:49:11.139Z,74.27
2023-02-24T08:50:11.027Z,74.18
2023-02-24T08:51:11.024Z,74.18
2023-02-24T08:52:11.030Z,74.37
2023-02-24T08:53:11.039Z,74.18
2023-02-24T08:54:11.641Z,73.71
2023-02-24T08:55:11.058Z,74.08
2023-02-24T08:56:11.044Z,74.08
2023-02-24T08:57:11.064Z,73.90
2023-02-24T08:58:11.059Z,73.61
2023-02-24T08:59:11.057Z,73.42
2023-02-24T09:00:11.059Z,73.61
2023-02-24T09:01:11.213Z,73.42
2023-02-24T09:02:11.062Z,73.52
2023-02-24T09:03:11.097Z,73.08
2023-02-24T09:04:11.066Z,73.08
2023-02-24T09:05:14.216Z,73.27
2023-02-24T09:06:11.078Z,72.95
2023-02-24T09:07:12.107Z,72.38
2023-02-24T09:08:11.088Z,72.38
2023-02-24T09:09:11.086Z,72.38
2023-02-24T09:10:11.095Z,72.47
2023-02-24T09:11:11.098Z,72.47
2023-02-24T09:12:11.101Z,72.38
2023-02-24T09:13:11.097Z,83.53
2023-02-24T09:14:24.450Z,89.00
2023-02-24T09:15:11.109Z,86.61
2023-02-24T09:16:11.163Z,79.96
2023-02-24T09:17:11.687Z,76.16
2023-02-24T09:18:11.115Z,73.69
2023-02-24T09:19:11.147Z,73.21
2023-02-24T09:20:11.186Z,72.35
2023-02-24T09:21:11.127Z,72.99
2023-02-24T09:22:20.749Z,72.79
2023-02-24T09:23:11.133Z,71.46
2023-02-24T09:24:11.128Z,71.94
2023-02-24T09:25:11.137Z,71.84
2023-02-24T09:26:11.399Z,71.66
2023-02-24T09:27:11.136Z,72.28
2023-02-24T09:28:11.139Z,72.75
2023-02-24T09:29:11.147Z,72.32
2023-02-24T09:30:11.142Z,72.66
2023-02-24T09:31:11.330Z,72.56
2023-02-24T09:32:11.322Z,72.56
2023-02-24T09:33:11.314Z,72.47
2023-02-24T09:34:11.152Z,72.47
2023-02-24T09:35:11.189Z,72.28
2023-02-24T09:36:11.167Z,72.47
2023-02-24T09:37:11.169Z,72.47
2023-02-24T09:38:11.179Z,72.47
2023-02-24T09:39:11.168Z,72.47
2023-02-24T09:40:11.182Z,72.85
2023-02-24T09:41:18.946Z,72.75
2023-02-24T09:42:11.185Z,72.56
2023-02-24T09:43:11.180Z,73.23
2023-02-24T09:44:11.184Z,73.90
2023-02-24T09:45:11.190Z,73.61
2023-02-24T09:46:11.498Z,73.23
2023-02-24T09:47:11.192Z,73.23
2023-02-24T09:48:11.194Z,73.33
2023-02-24T09:49:11.202Z,73.71
2023-02-24T09:50:11.199Z,73.42
2023-02-24T09:51:11.225Z,73.99
2023-02-24T09:52:11.226Z,73.57
2023-02-24T09:53:11.589Z,74.05
2023-02-24T09:54:11.217Z,74.05
2023-02-24T09:55:11.221Z,74.05
2023-02-24T09:56:11.217Z,74.24
2023-02-24T09:57:11.250Z,74.52
2023-02-24T09:58:11.221Z,74.62
2023-02-24T09:59:11.219Z,74.71
2023-02-24T10:00:11.224Z,74.33
2023-02-24T10:01:11.242Z,74.62
2023-02-24T10:02:11.302Z,75.00
2023-02-24T10:03:11.240Z,74.71
2023-02-24T10:04:20.237Z,75.00
2023-02-24T10:05:11.242Z,75.09
2023-02-24T10:06:11.240Z,74.90
2023-02-24T10:07:11.287Z,74.62
2023-02-24T10:08:11.252Z,75.32
2023-02-24T10:09:11.247Z,75.19
2023-02-24T10:10:11.257Z,75.19
2023-02-24T10:11:11.259Z,74.90
2023-02-24T10:12:11.260Z,75.28
2023-02-24T10:13:11.264Z,75.38
2023-02-24T10:14:11.260Z,75.04
2023-02-24T10:15:11.272Z,75.13
2023-02-24T10:16:11.265Z,75.19
2023-02-24T10:17:11.273Z,75.38
2023-02-24T10:18:11.270Z,75.42
2023-02-24T10:19:11.275Z,75.28
2023-02-24T10:20:11.274Z,75.67
2023-02-24T10:21:11.378Z,75.76
2023-02-24T10:22:11.277Z,75.19
2023-02-24T10:23:11.315Z,75.13
2023-02-24T10:24:11.292Z,75.28
2023-02-24T10:25:11.298Z,75.19
2023-02-24T10:26:11.297Z,75.67
2023-02-24T10:27:16.764Z,75.85
2023-02-24T10:28:11.303Z,75.38
2023-02-24T10:29:11.303Z,75.76
2023-02-24T10:30:11.561Z,75.47
2023-02-24T10:31:11.404Z,75.85
2023-02-24T10:32:11.634Z,75.95
2023-02-24T10:33:11.322Z,76.04
2023-02-24T10:34:11.319Z,76.23
2023-02-24T10:35:11.319Z,76.04
2023-02-24T10:36:11.315Z,75.95
2023-02-24T10:37:16.563Z,76.14
2023-02-24T10:38:11.328Z,76.14
2023-02-24T10:39:11.351Z,75.76
2023-02-24T10:40:11.329Z,75.95
2023-02-24T10:41:11.328Z,76.23
2023-02-24T10:42:11.347Z,76.71
2023-02-24T10:43:11.333Z,76.61
2023-02-24T10:44:11.333Z,76.90
2023-02-24T10:45:17.139Z,77.18
2023-02-24T10:46:11.354Z,77.28
2023-02-24T10:47:11.613Z,77.75
2023-02-24T10:48:12.621Z,77.79
2023-02-24T10:49:11.352Z,78.03
2023-02-24T10:50:11.348Z,78.13
2023-02-24T10:51:11.357Z,78.70
2023-02-24T10:52:11.358Z,79.17
2023-02-24T10:53:11.452Z,79.36
2023-02-24T10:54:11.371Z,80.32
2023-02-24T10:55:11.387Z,80.41
2023-02-24T10:56:11.375Z,80.60
2023-02-24T10:57:11.362Z,81.07
2023-02-24T10:58:11.369Z,81.17
2023-02-24T10:59:11.414Z,81.26
2023-02-24T11:00:11.373Z,81.45
2023-02-24T11:01:11.426Z,81.84
2023-02-24T11:02:11.398Z,82.12
2023-02-24T11:03:11.376Z,81.84
2023-02-24T11:04:11.386Z,82.59
2023-02-24T11:05:11.379Z,82.59
2023-02-24T11:06:11.410Z,82.59
2023-02-24T11:07:11.394Z,82.88
2023-02-24T11:08:11.387Z,83.07
2023-02-24T11:09:11.390Z,82.97
2023-02-24T11:10:11.466Z,83.07
2023-02-24T11:11:11.417Z,84.01
2023-02-24T11:12:11.399Z,83.64
2023-02-24T11:13:11.410Z,84.17
2023-02-24T11:14:11.400Z,83.88
2023-02-24T11:15:11.408Z,83.88
2023-02-24T11:16:11.500Z,84.92
2023-02-24T11:17:11.410Z,85.02
2023-02-24T11:18:11.417Z,85.11
2023-02-24T11:19:11.412Z,85.02
2023-02-24T11:20:11.420Z,85.49
2023-02-24T11:21:11.416Z,85.78
2023-02-24T11:22:11.418Z,85.87
2023-02-24T11:23:11.420Z,85.97
2023-02-24T11:24:11.424Z,86.63
2023-02-24T11:25:11.428Z,86.82
2023-02-24T11:26:11.433Z,87.01
2023-02-24T11:27:11.458Z,87.49
2023-02-24T11:28:11.430Z,87.49
2023-02-24T11:29:11.433Z,87.49
2023-02-24T11:30:11.432Z,87.68
2023-02-24T11:31:11.605Z,87.77
2023-02-24T11:32:14.881Z,87.49
2023-02-24T11:33:11.446Z,87.96
2023-02-24T11:34:11.685Z,87.58
2023-02-24T11:35:11.697Z,88.06
2023-02-24T11:36:11.988Z,87.96
2023-02-24T11:37:11.766Z,88.43
2023-02-24T11:38:11.692Z,88.06
2023-02-24T11:39:18.788Z,88.72
2023-02-24T11:40:11.550Z,88.34
2023-02-24T11:41:11.624Z,88.96
2023-02-24T11:42:11.551Z,89.06
2023-02-24T11:43:11.684Z,88.96
2023-02-24T11:44:14.584Z,89.06
2023-02-24T11:45:11.679Z,88.77
2023-02-24T11:46:11.523Z,88.96
2023-02-24T11:47:11.479Z,89.43
2023-02-24T11:48:11.473Z,89.62
2023-02-24T11:49:11.481Z,89.62
2023-02-24T11:50:11.478Z,89.43
2023-02-24T11:51:11.480Z,89.53
2023-02-24T11:52:11.476Z,90.29
2023-02-24T11:53:11.486Z,90.29
2023-02-24T11:54:11.498Z,90.00
2023-02-24T11:55:11.489Z,90.10
2023-02-24T11:56:11.490Z,90.19
2023-02-24T11:57:11.491Z,90.00
2023-02-24T11:58:11.492Z,90.10
2023-02-24T11:59:11.509Z,90.57
2023-02-24T12:00:11.498Z,90.71
2023-02-24T12:01:11.491Z,91.24
2023-02-24T12:02:11.496Z,90.76
2023-02-24T12:03:11.512Z,91.24
2023-02-24T12:04:11.501Z,91.05
2023-02-24T12:05:11.505Z,91.14
2023-02-24T12:06:11.543Z,91.24
2023-02-24T12:07:11.502Z,90.95
2023-02-24T12:08:11.510Z,90.95
2023-02-24T12:09:11.513Z,91.14
2023-02-24T12:10:17.242Z,92.28
2023-02-24T12:11:11.549Z,91.71
2023-02-24T12:12:13.569Z,91.71
2023-02-24T12:13:11.520Z,92.18
2023-02-24T12:14:11.514Z,92.28
2023-02-24T12:15:11.542Z,92.09
2023-02-24T12:16:11.579Z,92.09
2023-02-24T12:17:11.521Z,92.57
2023-02-24T12:18:13.662Z,92.57
2023-02-24T12:19:11.529Z,92.76
2023-02-24T12:20:11.533Z,92.76
2023-02-24T12:21:11.526Z,92.85
2023-02-24T12:22:11.526Z,92.94
2023-02-24T12:23:11.536Z,93.04
2023-02-24T12:24:11.544Z,92.66
2023-02-24T12:25:11.538Z,92.47
2023-02-24T12:26:11.560Z,92.85
2023-02-24T12:27:11.547Z,92.85
2023-02-24T12:28:11.541Z,93.51
2023-02-24T12:29:11.545Z,93.70
2023-02-24T12:30:11.544Z,93.61
2023-02-24T12:31:11.809Z,93.13
2023-02-24T12:32:11.646Z,93.70
2023-02-24T12:33:11.541Z,93.61
2023-02-24T12:34:11.548Z,93.61
2023-02-24T12:35:11.550Z,93.51
2023-02-24T12:36:11.549Z,93.70
2023-02-24T12:37:11.545Z,93.70
2023-02-24T12:38:11.557Z,93.80
2023-02-24T12:39:11.554Z,94.18
2023-02-24T12:40:11.561Z,94.27
2023-02-24T12:41:11.570Z,94.13
2023-02-24T12:42:11.552Z,94.79
2023-02-24T12:43:11.581Z,94.42
2023-02-24T12:44:11.566Z,94.70
2023-02-24T12:45:11.570Z,94.51
2023-02-24T12:46:11.621Z,94.70
2023-02-24T12:47:11.595Z,94.03
2023-02-24T12:48:11.572Z,93.65
2023-02-24T12:49:11.576Z,93.94
2023-02-24T12:50:11.574Z,93.84
2023-02-24T12:51:11.570Z,93.94
2023-02-24T12:52:11.578Z,93.75
2023-02-24T12:53:11.579Z,93.84
2023-02-24T12:54:11.582Z,94.37